createdAt,value
2022-11-09T07:37:41.162Z,12.77
2022-11-09T08:13:50.872Z,14.40
2022-11-09T08:18:44.392Z,11.93
2022-11-09T08:42:06.637Z,17.37
2022-11-09T08:47:00.097Z,16.47
2022-11-09T08:51:54.808Z,14.77
2022-11-09T08:56:48.367Z,10.33
2022-11-09T09:01:43.431Z,9.87
2022-11-09T09:06:37.834Z,8.77
2022-11-09T09:11:31.363Z,7.47
2022-11-09T09:16:24.862Z,7.73
2022-11-09T09:21:19.848Z,8.80
2022-11-09T09:26:13.544Z,6.57
2022-11-09T09:31:07.224Z,6.80
2022-11-09T09:36:01.336Z,6.73
2022-11-09T09:41:00.302Z,7.13
2022-11-09T09:45:55.144Z,7.37
2022-11-09T09:50:52.105Z,6.77
2022-11-09T09:55:51.890Z,7.63
2022-11-09T10:00:47.099Z,7.37
2022-11-09T10:05:49.413Z,8.60
2022-11-09T10:10:48.402Z,8.23
2022-11-09T10:15:50.882Z,8.13
2022-11-09T10:20:58.616Z,6.63
2022-11-09T10:26:04.890Z,6.47
2022-11-09T10:31:03.133Z,6.50
2022-11-09T10:36:07.832Z,6.30
2022-11-09T10:41:06.535Z,5.93
2022-11-09T10:46:21.575Z,7.03
2022-11-09T10:51:39.815Z,9.73
2022-11-09T10:57:10.030Z,6.27
2022-11-09T11:02:44.220Z,5.90
2022-11-09T11:07:56.496Z,6.17
2022-11-09T11:13:29.363Z,6.60
2022-11-09T11:18:47.082Z,6.43
2022-11-09T11:24:14.909Z,6.20
2022-11-09T11:29:48.463Z,5.95
2022-11-09T11:35:02.751Z,6.10
2022-11-09T11:40:21.647Z,6.47
2022-11-09T11:45:42.472Z,6.05
2022-11-09T11:51:02.818Z,5.80
2022-11-09T11:56:23.735Z,6.40
2022-11-09T12:01:52.821Z,6.32
2022-11-09T12:07:15.844Z,14.55
2022-11-09T12:12:37.278Z,6.60
2022-11-09T12:17:59.252Z,9.93
2022-11-09T12:23:26.091Z,6.25
2022-11-09T12:28:55.920Z,6.15
2022-11-09T12:34:16.383Z,5.80
2022-11-09T12:39:37.136Z,6.15
2022-11-09T12:45:04.744Z,5.97
2022-11-09T12:50:20.344Z,6.05
2022-11-09T12:55:42.477Z,5.78
2022-11-09T13:00:57.306Z,5.75
2022-11-09T13:06:19.200Z,5.72
2022-11-09T13:11:39.565Z,6.20
2022-11-09T13:16:52.438Z,9.50
2022-11-09T13:22:25.319Z,6.40
2022-11-09T13:27:51.903Z,5.57
2022-11-09T13:33:25.470Z,6.57
2022-11-09T13:38:38.491Z,6.35
2022-11-09T13:44:09.781Z,6.55
2022-11-09T13:49:46.084Z,7.93
2022-11-09T13:54:58.568Z,6.30
2022-11-09T14:00:19.920Z,6.50
2022-11-09T14:05:36.328Z,6.35
2022-11-09T14:11:11.594Z,7.78
2022-11-09T14:16:31.369Z,6.65
2022-11-09T14:21:48.021Z,5.32
2022-11-09T14:27:01.877Z,6.18
2022-11-09T14:32:30.330Z,6.20
2022-11-09T14:37:46.530Z,5.90
2022-11-09T14:43:02.455Z,6.20
2022-11-09T14:48:20.795Z,8.10
2022-11-09T14:53:37.903Z,6.43
2022-11-09T14:58:50.896Z,7.67
2022-11-09T15:04:11.845Z,8.60
2022-11-09T15:09:29.810Z,7.17
2022-11-09T15:14:42.784Z,6.30
2022-11-09T15:19:58.648Z,7.00
2022-11-09T15:25:31.353Z,8.90
2022-11-09T15:30:46.267Z,9.67
2022-11-09T15:36:04.573Z,11.03
2022-11-09T15:41:19.841Z,13.67
2022-11-09T15:46:37.891Z,13.47
2022-11-09T15:51:52.110Z,12.80
2022-11-09T15:57:05.366Z,14.93
2022-11-09T16:02:19.146Z,14.47
2022-11-09T16:07:33.029Z,15.00
2022-11-09T16:12:46.508Z,11.53
2022-11-09T16:17:59.079Z,9.70
2022-11-09T16:23:13.355Z,10.37
2022-11-09T16:28:26.126Z,9.63
2022-11-09T16:33:40.241Z,8.47
2022-11-09T16:38:57.311Z,8.30
2022-11-09T16:44:09.745Z,8.87
2022-11-09T16:49:22.113Z,9.20
